sensor_id;sensor_type;location;lat;lon;timestamp;pressure;altitude;pressure_sealevel;temperature;humidity
67987;BME280;54767;53.800;15.956;2023-02-15T00:01:28;101991.56;;;0.74;74.75
67987;BME280;54767;53.800;15.956;2023-02-15T00:03:57;101987.05;;;0.74;74.88
67987;BME280;54767;53.800;15.956;2023-02-15T00:06:25;101991.73;;;0.74;74.83
67987;BME280;54767;53.800;15.956;2023-02-15T00:08:54;101992.63;;;0.74;74.97
67987;BME280;54767;53.800;15.956;2023-02-15T00:11:23;101994.31;;;0.74;74.88
67987;BME280;54767;53.800;15.956;2023-02-15T00:16:44;101988.89;;;0.67;75.20
67987;BME280;54767;53.800;15.956;2023-02-15T00:19:14;101986.45;;;0.67;75.17
67987;BME280;54767;53.800;15.956;2023-02-15T00:21:43;101985.23;;;0.67;75.39
67987;BME280;54767;53.800;15.956;2023-02-15T00:24:14;101978.16;;;0.69;75.34
67987;BME280;54767;53.800;15.956;2023-02-15T00:26:43;101973.41;;;0.73;75.51
67987;BME280;54767;53.800;15.956;2023-02-15T00:29:14;101967.27;;;0.76;75.61
67987;BME280;54767;53.800;15.956;2023-02-15T00:31:43;101968.24;;;0.75;75.41
67987;BME280;54767;53.800;15.956;2023-02-15T00:34:20;101971.80;;;0.77;75.45
67987;BME280;54767;53.800;15.956;2023-02-15T00:36:49;101973.34;;;0.79;75.54
67987;BME280;54767;53.800;15.956;2023-02-15T00:39:18;101970.81;;;0.80;75.77
67987;BME280;54767;53.800;15.956;2023-02-15T00:41:47;101970.31;;;0.80;75.96
67987;BME280;54767;53.800;15.956;2023-02-15T00:44:15;101971.27;;;0.84;75.68
67987;BME280;54767;53.800;15.956;2023-02-15T00:46:44;101969.35;;;0.86;75.69
67987;BME280;54767;53.800;15.956;2023-02-15T00:49:12;101966.15;;;0.90;75.75
67987;BME280;54767;53.800;15.956;2023-02-15T00:51:40;101963.29;;;0.94;75.73
67987;BME280;54767;53.800;15.956;2023-02-15T00:54:08;101966.23;;;0.96;75.89
67987;BME280;54767;53.800;15.956;2023-02-15T00:56:37;101963.81;;;0.99;75.99
67987;BME280;54767;53.800;15.956;2023-02-15T00:59:05;101960.76;;;0.99;76.15
67987;BME280;54767;53.800;15.956;2023-02-15T01:01:34;101963.05;;;1.00;76.19
67987;BME280;54767;53.800;15.956;2023-02-15T01:04:02;101962.48;;;1.02;75.99
67987;BME280;54767;53.800;15.956;2023-02-15T01:06:31;101963.44;;;1.03;76.07
67987;BME280;54767;53.800;15.956;2023-02-15T01:08:59;101958.80;;;1.06;76.05
67987;BME280;54767;53.800;15.956;2023-02-15T01:11:27;101956.82;;;1.10;76.14
67987;BME280;54767;53.800;15.956;2023-02-15T01:13:57;101955.73;;;1.14;76.12
67987;BME280;54767;53.800;15.956;2023-02-15T01:16:26;101959.03;;;1.17;76.26
67987;BME280;54767;53.800;15.956;2023-02-15T01:18:56;101956.45;;;1.18;76.23
67987;BME280;54767;53.800;15.956;2023-02-15T01:21:25;101952.90;;;1.18;76.21
67987;BME280;54767;53.800;15.956;2023-02-15T01:23:54;101955.13;;;1.18;76.18
67987;BME280;54767;53.800;15.956;2023-02-15T01:26:22;101954.88;;;1.20;76.17
67987;BME280;54767;53.800;15.956;2023-02-15T01:28:50;101949.84;;;1.22;76.25
67987;BME280;54767;53.800;15.956;2023-02-15T01:31:20;101948.98;;;1.24;76.14
67987;BME280;54767;53.800;15.956;2023-02-15T01:33:49;101945.08;;;1.28;76.13
67987;BME280;54767;53.800;15.956;2023-02-15T01:36:18;101947.04;;;1.29;76.14
67987;BME280;54767;53.800;15.956;2023-02-15T01:38:46;101940.75;;;1.30;76.33
67987;BME280;54767;53.800;15.956;2023-02-15T01:41:14;101938.93;;;1.31;76.31
67987;BME280;54767;53.800;15.956;2023-02-15T01:43:57;101938.98;;;1.32;76.14
67987;BME280;54767;53.800;15.956;2023-02-15T01:46:39;101933.98;;;1.32;76.28
67987;BME280;54767;53.800;15.956;2023-02-15T01:49:15;101926.70;;;1.31;76.19
67987;BME280;54767;53.800;15.956;2023-02-15T01:51:46;101924.99;;;1.34;76.25
67987;BME280;54767;53.800;15.956;2023-02-15T01:56:48;101920.09;;;1.44;76.23
67987;BME280;54767;53.800;15.956;2023-02-15T01:59:19;101918.05;;;1.47;76.26
67987;BME280;54767;53.800;15.956;2023-02-15T02:01:51;101918.39;;;1.49;76.18
67987;BME280;54767;53.800;15.956;2023-02-15T02:04:31;101913.55;;;1.52;76.25
67987;BME280;54767;53.800;15.956;2023-02-15T02:07:02;101909.62;;;1.52;76.27
67987;BME280;54767;53.800;15.956;2023-02-15T02:09:32;101904.02;;;1.54;76.29
67987;BME280;54767;53.800;15.956;2023-02-15T02:12:01;101901.50;;;1.57;76.02
67987;BME280;54767;53.800;15.956;2023-02-15T02:14:29;101894.98;;;1.61;76.10
67987;BME280;54767;53.800;15.956;2023-02-15T02:27:35;101884.22;;;1.63;75.98
67987;BME280;54767;53.800;15.956;2023-02-15T02:30:34;101881.58;;;1.62;75.99
67987;BME280;54767;53.800;15.956;2023-02-15T02:39:13;101868.67;;;1.68;76.08
67987;BME280;54767;53.800;15.956;2023-02-15T02:47:07;101862.38;;;1.67;75.97
67987;BME280;54767;53.800;15.956;2023-02-15T02:49:42;101859.11;;;1.67;76.05
67987;BME280;54767;53.800;15.956;2023-02-15T02:52:46;101853.30;;;1.68;75.94
67987;BME280;54767;53.800;15.956;2023-02-15T02:55:39;101854.65;;;1.70;76.01
67987;BME280;54767;53.800;15.956;2023-02-15T02:58:35;101852.52;;;1.72;76.03
67987;BME280;54767;53.800;15.956;2023-02-15T03:01:11;101855.54;;;1.70;75.82
67987;BME280;54767;53.800;15.956;2023-02-15T03:06:25;101855.91;;;1.65;75.90
67987;BME280;54767;53.800;15.956;2023-02-15T03:09:03;101854.83;;;1.64;75.63
67987;BME280;54767;53.800;15.956;2023-02-15T03:11:33;101850.62;;;1.64;75.81
67987;BME280;54767;53.800;15.956;2023-02-15T03:14:02;101846.82;;;1.64;75.74
67987;BME280;54767;53.800;15.956;2023-02-15T03:16:30;101843.28;;;1.62;75.62
67987;BME280;54767;53.800;15.956;2023-02-15T03:19:07;101841.59;;;1.60;75.76
67987;BME280;54767;53.800;15.956;2023-02-15T03:21:47;101844.34;;;1.56;75.71
67987;BME280;54767;53.800;15.956;2023-02-15T03:24:33;101839.90;;;1.52;75.88
67987;BME280;54767;53.800;15.956;2023-02-15T03:27:10;101833.73;;;1.48;75.71
67987;BME280;54767;53.800;15.956;2023-02-15T03:29:39;101831.75;;;1.44;75.58
67987;BME280;54767;53.800;15.956;2023-02-15T03:32:10;101827.84;;;1.42;75.78
67987;BME280;54767;53.800;15.956;2023-02-15T03:34:39;101824.98;;;1.40;75.56
67987;BME280;54767;53.800;15.956;2023-02-15T03:37:21;101825.23;;;1.39;75.53
67987;BME280;54767;53.800;15.956;2023-02-15T03:40:12;101821.77;;;1.36;75.48
67987;BME280;54767;53.800;15.956;2023-02-15T03:43:34;101813.16;;;1.31;75.40
67987;BME280;54767;53.800;15.956;2023-02-15T03:46:10;101814.09;;;1.26;75.50
67987;BME280;54767;53.800;15.956;2023-02-15T03:48:49;101812.48;;;1.20;75.46
67987;BME280;54767;53.800;15.956;2023-02-15T03:51:23;101813.30;;;1.17;75.32
67987;BME280;54767;53.800;15.956;2023-02-15T03:54:22;101814.98;;;1.14;75.43
67987;BME280;54767;53.800;15.956;2023-02-15T03:57:19;101810.88;;;1.11;75.46
67987;BME280;54767;53.800;15.956;2023-02-15T04:00:24;101811.84;;;1.08;75.48
67987;BME280;54767;53.800;15.956;2023-02-15T04:05:48;101813.42;;;1.03;75.50
67987;BME280;54767;53.800;15.956;2023-02-15T04:08:16;101814.77;;;1.00;75.21
67987;BME280;54767;53.800;15.956;2023-02-15T04:10:45;101813.44;;;0.95;75.17
67987;BME280;54767;53.800;15.956;2023-02-15T04:13:30;101814.06;;;0.92;75.48
67987;BME280;54767;53.800;15.956;2023-02-15T04:15:59;101817.67;;;0.89;75.42
67987;BME280;54767;53.800;15.956;2023-02-15T04:18:40;101816.40;;;0.88;75.22
67987;BME280;54767;53.800;15.956;2023-02-15T04:21:29;101813.13;;;0.88;75.34
67987;BME280;54767;53.800;15.956;2023-02-15T04:24:17;101811.91;;;0.88;75.50
67987;BME280;54767;53.800;15.956;2023-02-15T04:27:05;101809.98;;;0.87;75.57
67987;BME280;54767;53.800;15.956;2023-02-15T04:29:33;101805.75;;;0.86;75.40
67987;BME280;54767;53.800;15.956;2023-02-15T04:32:02;101803.85;;;0.83;75.57
67987;BME280;54767;53.800;15.956;2023-02-15T04:34:30;101801.53;;;0.80;75.49
67987;BME280;54767;53.800;15.956;2023-02-15T04:36:59;101794.60;;;0.77;75.54
67987;BME280;54767;53.800;15.956;2023-02-15T04:39:27;101789.98;;;0.75;75.59
67987;BME280;54767;53.800;15.956;2023-02-15T04:41:55;101788.05;;;0.74;75.64
67987;BME280;54767;53.800;15.956;2023-02-15T04:44:23;101788.20;;;0.73;75.45
67987;BME280;54767;53.800;15.956;2023-02-15T04:46:52;101786.27;;;0.73;75.79
67987;BME280;54767;53.800;15.956;2023-02-15T04:49:20;101781.12;;;0.71;75.48
67987;BME280;54767;53.800;15.956;2023-02-15T04:51:48;101776.52;;;0.69;75.62
67987;BME280;54767;53.800;15.956;2023-02-15T04:54:16;101775.52;;;0.66;75.70
67987;BME280;54767;53.800;15.956;2023-02-15T04:56:45;101776.57;;;0.64;75.48
67987;BME280;54767;53.800;15.956;2023-02-15T04:59:13;101777.42;;;0.62;75.59
67987;BME280;54767;53.800;15.956;2023-02-15T05:01:41;101778.77;;;0.61;75.37
67987;BME280;54767;53.800;15.956;2023-02-15T05:04:10;101773.77;;;0.61;75.61
67987;BME280;54767;53.800;15.956;2023-02-15T05:06:38;101769.15;;;0.61;75.73
67987;BME280;54767;53.800;15.956;2023-02-15T05:09:07;101769.64;;;0.61;75.52
67987;BME280;54767;53.800;15.956;2023-02-15T05:11:35;101764.36;;;0.60;75.48
67987;BME280;54767;53.800;15.956;2023-02-15T05:14:04;101761.08;;;0.57;75.46
67987;BME280;54767;53.800;15.956;2023-02-15T05:16:32;101762.15;;;0.55;75.30
67987;BME280;54767;53.800;15.956;2023-02-15T05:19:01;101756.16;;;0.53;75.54
67987;BME280;54767;53.800;15.956;2023-02-15T05:21:29;101758.86;;;0.49;75.79
67987;BME280;54767;53.800;15.956;2023-02-15T05:23:58;101754.37;;;0.47;75.77
67987;BME280;54767;53.800;15.956;2023-02-15T05:26:26;101754.64;;;0.45;75.56
67987;BME280;54767;53.800;15.956;2023-02-15T05:29:13;101749.92;;;0.44;75.38
67987;BME280;54767;53.800;15.956;2023-02-15T05:31:41;101743.48;;;0.43;75.23
67987;BME280;54767;53.800;15.956;2023-02-15T05:34:12;101747.58;;;0.43;75.50
67987;BME280;54767;53.800;15.956;2023-02-15T05:36:40;101747.25;;;0.40;75.63
67987;BME280;54767;53.800;15.956;2023-02-15T05:39:09;101751.34;;;0.37;75.81
67987;BME280;54767;53.800;15.956;2023-02-15T05:41:37;101752.67;;;0.34;75.51
67987;BME280;54767;53.800;15.956;2023-02-15T05:44:05;101754.86;;;0.31;75.72
67987;BME280;54767;53.800;15.956;2023-02-15T05:46:33;101753.88;;;0.29;75.83
67987;BME280;54767;53.800;15.956;2023-02-15T05:49:02;101752.96;;;0.28;76.04
67987;BME280;54767;53.800;15.956;2023-02-15T05:51:30;101751.61;;;0.29;75.81
67987;BME280;54767;53.800;15.956;2023-02-15T05:53:58;101750.30;;;0.29;75.79
67987;BME280;54767;53.800;15.956;2023-02-15T05:56:26;101745.68;;;0.30;75.89
67987;BME280;54767;53.800;15.956;2023-02-15T05:58:55;101739.15;;;0.30;75.88
67987;BME280;54767;53.800;15.956;2023-02-15T06:01:23;101744.50;;;0.30;76.10
67987;BME280;54767;53.800;15.956;2023-02-15T06:03:52;101743.26;;;0.30;76.19
67987;BME280;54767;53.800;15.956;2023-02-15T06:06:20;101739.23;;;0.29;75.88
67987;BME280;54767;53.800;15.956;2023-02-15T06:08:48;101741.17;;;0.29;76.17
67987;BME280;54767;53.800;15.956;2023-02-15T06:11:17;101734.24;;;0.29;75.89
67987;BME280;54767;53.800;15.956;2023-02-15T06:13:46;101734.10;;;0.29;76.05
67987;BME280;54767;53.800;15.956;2023-02-15T06:16:14;101729.73;;;0.31;75.92
67987;BME280;54767;53.800;15.956;2023-02-15T06:18:44;101729.13;;;0.33;75.90
67987;BME280;54767;53.800;15.956;2023-02-15T06:21:12;101726.94;;;0.33;76.25
67987;BME280;54767;53.800;15.956;2023-02-15T06:23:41;101723.27;;;0.32;75.77
67987;BME280;54767;53.800;15.956;2023-02-15T06:26:09;101727.36;;;0.32;76.33
67987;BME280;54767;53.800;15.956;2023-02-15T06:28:37;101730.89;;;0.30;75.94
67987;BME280;54767;53.800;15.956;2023-02-15T06:31:06;101736.73;;;0.30;76.31
67987;BME280;54767;53.800;15.956;2023-02-15T06:33:34;101730.38;;;0.31;76.04
67987;BME280;54767;53.800;15.956;2023-02-15T06:36:03;101735.64;;;0.32;75.96
67987;BME280;54767;53.800;15.956;2023-02-15T06:38:32;101735.77;;;0.34;76.08
67987;BME280;54767;53.800;15.956;2023-02-15T06:41:00;101730.85;;;0.35;76.07
67987;BME280;54767;53.800;15.956;2023-02-15T06:43:28;101728.97;;;0.35;76.24
67987;BME280;54767;53.800;15.956;2023-02-15T06:45:57;101724.27;;;0.34;76.11
67987;BME280;54767;53.800;15.956;2023-02-15T06:48:26;101725.39;;;0.33;76.08
67987;BME280;54767;53.800;15.956;2023-02-15T06:50:54;101721.70;;;0.32;75.99
67987;BME280;54767;53.800;15.956;2023-02-15T06:53:23;101720.89;;;0.33;75.94
67987;BME280;54767;53.800;15.956;2023-02-15T06:55:51;101720.86;;;0.35;76.20
67987;BME280;54767;53.800;15.956;2023-02-15T06:58:19;101717.00;;;0.36;75.98
67987;BME280;54767;53.800;15.956;2023-02-15T07:00:47;101715.77;;;0.38;76.29
67987;BME280;54767;53.800;15.956;2023-02-15T07:03:17;101714.24;;;0.39;76.04
67987;BME280;54767;53.800;15.956;2023-02-15T07:05:45;101715.98;;;0.39;76.20
67987;BME280;54767;53.800;15.956;2023-02-15T07:08:15;101711.65;;;0.38;76.16
67987;BME280;54767;53.800;15.956;2023-02-15T07:10:43;101708.84;;;0.38;76.23
67987;BME280;54767;53.800;15.956;2023-02-15T07:13:12;101707.86;;;0.39;76.35
67987;BME280;54767;53.800;15.956;2023-02-15T07:15:40;101711.83;;;0.41;76.57
67987;BME280;54767;53.800;15.956;2023-02-15T07:18:08;101710.02;;;0.45;76.44
67987;BME280;54767;53.800;15.956;2023-02-15T07:20:38;101703.66;;;0.48;76.46
67987;BME280;54767;53.800;15.956;2023-02-15T07:23:09;101700.80;;;0.49;76.58
67987;BME280;54767;53.800;15.956;2023-02-15T07:25:37;101699.91;;;0.51;76.83
67987;BME280;54767;53.800;15.956;2023-02-15T07:28:06;101694.10;;;0.52;76.71
67987;BME280;54767;53.800;15.956;2023-02-15T07:30:34;101692.30;;;0.54;76.69
67987;BME280;54767;53.800;15.956;2023-02-15T07:33:05;101687.58;;;0.57;76.84
67987;BME280;54767;53.800;15.956;2023-02-15T07:35:57;101682.40;;;0.63;76.66
67987;BME280;54767;53.800;15.956;2023-02-15T07:38:27;101675.16;;;0.65;76.73
67987;BME280;54767;53.800;15.956;2023-02-15T07:41:00;101674.63;;;0.67;76.98
67987;BME280;54767;53.800;15.956;2023-02-15T07:43:29;101668.87;;;0.69;77.00
67987;BME280;54767;53.800;15.956;2023-02-15T07:46:04;101661.40;;;0.71;77.12
67987;BME280;54767;53.800;15.956;2023-02-15T07:48:33;101662.09;;;0.74;77.17
67987;BME280;54767;53.800;15.956;2023-02-15T07:51:04;101653.60;;;0.78;77.24
67987;BME280;54767;53.800;15.956;2023-02-15T07:53:33;101653.63;;;0.84;77.44
67987;BME280;54767;53.800;15.956;2023-02-15T07:56:04;101650.59;;;0.88;77.24
67987;BME280;54767;53.800;15.956;2023-02-15T07:58:34;101652.07;;;0.89;77.58
67987;BME280;54767;53.800;15.956;2023-02-15T08:01:27;101652.16;;;0.91;77.46
67987;BME280;54767;53.800;15.956;2023-02-15T08:03:57;101650.92;;;0.94;77.62
67987;BME280;54767;53.800;15.956;2023-02-15T08:06:28;101647.64;;;0.96;77.88
67987;BME280;54767;53.800;15.956;2023-02-15T08:08:57;101643.65;;;1.01;77.72
67987;BME280;54767;53.800;15.956;2023-02-15T08:11:28;101640.66;;;1.05;77.75
67987;BME280;54767;53.800;15.956;2023-02-15T08:16:33;101634.86;;;1.15;77.85
67987;BME280;54767;53.800;15.956;2023-02-15T08:19:05;101634.96;;;1.16;77.58
67987;BME280;54767;53.800;15.956;2023-02-15T08:21:36;101630.88;;;1.17;77.93
67987;BME280;54767;53.800;15.956;2023-02-15T08:24:06;101629.35;;;1.20;77.97
67987;BME280;54767;53.800;15.956;2023-02-15T08:26:35;101625.84;;;1.25;77.70
67987;BME280;54767;53.800;15.956;2023-02-15T08:29:04;101625.05;;;1.29;77.76
67987;BME280;54767;53.800;15.956;2023-02-15T08:31:35;101624.73;;;1.32;77.83
67987;BME280;54767;53.800;15.956;2023-02-15T08:34:05;101623.65;;;1.37;78.09
67987;BME280;54767;53.800;15.956;2023-02-15T08:36:34;101621.58;;;1.40;78.10
67987;BME280;54767;53.800;15.956;2023-02-15T08:39:04;101618.03;;;1.41;77.98
67987;BME280;54767;53.800;15.956;2023-02-15T08:41:34;101613.73;;;1.44;78.00
67987;BME280;54767;53.800;15.956;2023-02-15T08:44:05;101613.96;;;1.48;77.95
67987;BME280;54767;53.800;15.956;2023-02-15T08:46:37;101612.58;;;1.53;78.10
67987;BME280;54767;53.800;15.956;2023-02-15T08:49:06;101606.89;;;1.56;78.19
67987;BME280;54767;53.800;15.956;2023-02-15T08:51:36;101602.77;;;1.60;78.29
67987;BME280;54767;53.800;15.956;2023-02-15T08:54:09;101603.98;;;1.63;78.50
67987;BME280;54767;53.800;15.956;2023-02-15T08:56:40;101597.68;;;1.64;78.51
67987;BME280;54767;53.800;15.956;2023-02-15T08:59:16;101595.15;;;1.68;78.43
67987;BME280;54767;53.800;15.956;2023-02-15T09:01:45;101587.40;;;1.74;78.59
67987;BME280;54767;53.800;15.956;2023-02-15T09:04:14;101586.63;;;1.78;78.49
67987;BME280;54767;53.800;15.956;2023-02-15T09:06:46;101582.98;;;1.81;78.56
67987;BME280;54767;53.800;15.956;2023-02-15T09:09:17;101579.71;;;1.84;78.66
67987;BME280;54767;53.800;15.956;2023-02-15T09:11:48;101584.86;;;1.87;78.57
67987;BME280;54767;53.800;15.956;2023-02-15T09:14:20;101585.18;;;1.92;78.61
67987;BME280;54767;53.800;15.956;2023-02-15T09:16:49;101587.41;;;1.98;78.53
67987;BME280;54767;53.800;15.956;2023-02-15T09:19:21;101582.66;;;2.02;78.65
67987;BME280;54767;53.800;15.956;2023-02-15T09:21:49;101582.77;;;2.07;78.82
67987;BME280;54767;53.800;15.956;2023-02-15T09:24:18;101583.55;;;2.09;78.84
67987;BME280;54767;53.800;15.956;2023-02-15T09:26:48;101573.02;;;2.12;78.96
67987;BME280;54767;53.800;15.956;2023-02-15T09:29:17;101572.95;;;2.17;79.00
67987;BME280;54767;53.800;15.956;2023-02-15T09:31:48;101565.96;;;2.21;78.98
67987;BME280;54767;53.800;15.956;2023-02-15T09:34:20;101565.84;;;2.28;79.06
67987;BME280;54767;53.800;15.956;2023-02-15T09:36:49;101566.10;;;2.36;79.05
67987;BME280;54767;53.800;15.956;2023-02-15T09:39:22;101567.42;;;2.41;79.10
67987;BME280;54767;53.800;15.956;2023-02-15T10:06:43;101546.73;;;3.05;79.41
67987;BME280;54767;53.800;15.956;2023-02-15T10:17:55;101554.90;;;3.32;79.34
67987;BME280;54767;53.800;15.956;2023-02-15T10:26:18;101536.91;;;3.59;79.35
67987;BME280;54767;53.800;15.956;2023-02-15T10:28:53;101534.85;;;3.66;79.27
67987;BME280;54767;53.800;15.956;2023-02-15T10:34:10;101522.25;;;3.80;79.34
67987;BME280;54767;53.800;15.956;2023-02-15T10:42:30;101526.20;;;4.01;79.03
67987;BME280;54767;53.800;15.956;2023-02-15T10:48:22;101522.30;;;4.10;78.66
67987;BME280;54767;53.800;15.956;2023-02-15T10:50:54;101517.64;;;4.14;78.72
67987;BME280;54767;53.800;15.956;2023-02-15T10:59:11;101514.10;;;4.34;78.19
67987;BME280;54767;53.800;15.956;2023-02-15T11:07:03;101490.55;;;4.42;77.77
67987;BME280;54767;53.800;15.956;2023-02-15T11:09:40;101485.06;;;4.46;78.11
67987;BME280;54767;53.800;15.956;2023-02-15T11:12:14;101482.09;;;4.53;77.96
67987;BME280;54767;53.800;15.956;2023-02-15T11:17:43;101475.60;;;4.66;77.32
67987;BME280;54767;53.800;15.956;2023-02-15T11:20:28;101471.06;;;4.70;77.07
67987;BME280;54767;53.800;15.956;2023-02-15T11:22:58;101470.20;;;4.74;77.39
67987;BME280;54767;53.800;15.956;2023-02-15T11:25:32;101468.73;;;4.76;77.22
67987;BME280;54767;53.800;15.956;2023-02-15T11:28:05;101462.71;;;4.77;77.32
67987;BME280;54767;53.800;15.956;2023-02-15T11:30:47;101457.67;;;4.81;76.93
67987;BME280;54767;53.800;15.956;2023-02-15T11:33:27;101453.95;;;4.87;77.01
67987;BME280;54767;53.800;15.956;2023-02-15T11:36:01;101446.07;;;4.93;77.09
67987;BME280;54767;53.800;15.956;2023-02-15T11:38:33;101440.98;;;5.00;76.92
67987;BME280;54767;53.800;15.956;2023-02-15T11:41:07;101438.45;;;5.05;76.89
67987;BME280;54767;53.800;15.956;2023-02-15T11:46:16;101437.51;;;5.15;76.73
67987;BME280;54767;53.800;15.956;2023-02-15T11:48:47;101441.61;;;5.18;76.69
67987;BME280;54767;53.800;15.956;2023-02-15T11:51:18;101433.55;;;5.24;76.52
67987;BME280;54767;53.800;15.956;2023-02-15T11:53:51;101432.58;;;5.30;76.51
67987;BME280;54767;53.800;15.956;2023-02-15T11:56:22;101426.73;;;5.35;76.42
67987;BME280;54767;53.800;15.956;2023-02-15T11:59:11;101425.71;;;5.40;76.65
67987;BME280;54767;53.800;15.956;2023-02-15T12:01:44;101420.42;;;5.46;76.30
67987;BME280;54767;53.800;15.956;2023-02-15T12:04:38;101422.13;;;5.54;76.55
67987;BME280;54767;53.800;15.956;2023-02-15T12:10:00;101418.59;;;5.65;76.40
67987;BME280;54767;53.800;15.956;2023-02-15T12:12:35;101415.95;;;5.68;75.92
67987;BME280;54767;53.800;15.956;2023-02-15T12:15:07;101412.52;;;5.74;75.93
67987;BME280;54767;53.800;15.956;2023-02-15T12:22:49;101411.47;;;5.82;75.59
67987;BME280;54767;53.800;15.956;2023-02-15T12:27:51;101410.56;;;5.85;75.34
67987;BME280;54767;53.800;15.956;2023-02-15T12:30:58;101403.55;;;5.89;75.23
67987;BME280;54767;53.800;15.956;2023-02-15T12:36:17;101394.83;;;6.00;75.40
67987;BME280;54767;53.800;15.956;2023-02-15T12:41:36;101380.89;;;6.13;75.01
67987;BME280;54767;53.800;15.956;2023-02-15T12:44:20;101381.28;;;6.19;75.05
67987;BME280;54767;53.800;15.956;2023-02-15T12:47:06;101379.20;;;6.23;74.68
67987;BME280;54767;53.800;15.956;2023-02-15T12:49:37;101387.77;;;6.25;74.41
67987;BME280;54767;53.800;15.956;2023-02-15T12:52:24;101397.13;;;6.28;74.57
67987;BME280;54767;53.800;15.956;2023-02-15T12:54:53;101394.83;;;6.31;74.42
67987;BME280;54767;53.800;15.956;2023-02-15T12:57:27;101390.51;;;6.32;74.04
67987;BME280;54767;53.800;15.956;2023-02-15T13:02:54;101380.66;;;6.43;74.29
67987;BME280;54767;53.800;15.956;2023-02-15T13:05:39;101378.39;;;6.52;74.39
67987;BME280;54767;53.800;15.956;2023-02-15T13:09:06;101374.67;;;6.60;74.12
67987;BME280;54767;53.800;15.956;2023-02-15T13:11:11;101372.83;;;6.67;74.04
67987;BME280;54767;53.800;15.956;2023-02-15T13:14:24;101365.00;;;6.72;74.12
67987;BME280;54767;53.800;15.956;2023-02-15T13:16:56;101364.66;;;6.77;73.80
67987;BME280;54767;53.800;15.956;2023-02-15T13:19:41;101359.16;;;6.79;73.60
67987;BME280;54767;53.800;15.956;2023-02-15T13:22:15;101354.66;;;6.80;73.48
67987;BME280;54767;53.800;15.956;2023-02-15T13:25:27;101348.64;;;6.82;73.54
67987;BME280;54767;53.800;15.956;2023-02-15T13:28:04;101339.56;;;6.86;73.25
67987;BME280;54767;53.800;15.956;2023-02-15T13:30:38;101341.95;;;6.90;73.01
67987;BME280;54767;53.800;15.956;2023-02-15T13:33:35;101334.93;;;6.93;72.71
67987;BME280;54767;53.800;15.956;2023-02-15T13:36:12;101332.48;;;6.92;72.61
67987;BME280;54767;53.800;15.956;2023-02-15T13:42:02;101326.61;;;6.94;72.49
67987;BME280;54767;53.800;15.956;2023-02-15T13:52:49;101313.31;;;6.92;72.16
67987;BME280;54767;53.800;15.956;2023-02-15T13:55:49;101316.22;;;6.90;72.11
67987;BME280;54767;53.800;15.956;2023-02-15T14:01:28;101313.35;;;6.88;72.09
67987;BME280;54767;53.800;15.956;2023-02-15T14:17:45;101294.05;;;6.88;71.63
67987;BME280;54767;53.800;15.956;2023-02-15T14:20:39;101288.08;;;6.86;71.58
67987;BME280;54767;53.800;15.956;2023-02-15T14:23:19;101289.73;;;6.84;71.67
67987;BME280;54767;53.800;15.956;2023-02-15T14:26:06;101286.87;;;6.82;71.66
67987;BME280;54767;53.800;15.956;2023-02-15T14:31:29;101285.19;;;6.78;71.57
67987;BME280;54767;53.800;15.956;2023-02-15T14:34:01;101285.95;;;6.80;71.60
67987;BME280;54767;53.800;15.956;2023-02-15T14:36:32;101288.77;;;6.81;71.55
67987;BME280;54767;53.800;15.956;2023-02-15T14:39:25;101290.02;;;6.82;71.50
67987;BME280;54767;53.800;15.956;2023-02-15T14:47:51;101279.13;;;6.79;71.55
67987;BME280;54767;53.800;15.956;2023-02-15T14:50:47;101275.16;;;6.75;71.63
67987;BME280;54767;53.800;15.956;2023-02-15T14:53:34;101277.52;;;6.72;71.48
67987;BME280;54767;53.800;15.956;2023-02-15T15:01:32;101273.57;;;6.64;71.61
67987;BME280;54767;53.800;15.956;2023-02-15T15:04:07;101270.61;;;6.64;71.72
67987;BME280;54767;53.800;15.956;2023-02-15T15:06:39;101265.27;;;6.65;71.74
67987;BME280;54767;53.800;15.956;2023-02-15T15:09:28;101267.73;;;6.66;71.78
67987;BME280;54767;53.800;15.956;2023-02-15T15:14:49;101261.00;;;6.63;71.76
67987;BME280;54767;53.800;15.956;2023-02-15T15:20:10;101253.02;;;6.58;72.05
67987;BME280;54767;53.800;15.956;2023-02-15T15:22:42;101250.11;;;6.54;72.09
67987;BME280;54767;53.800;15.956;2023-02-15T15:28:05;101241.51;;;6.47;72.24
67987;BME280;54767;53.800;15.956;2023-02-15T15:49:29;101235.84;;;6.20;72.51
67987;BME280;54767;53.800;15.956;2023-02-15T15:52:12;101234.48;;;6.15;72.53
67987;BME280;54767;53.800;15.956;2023-02-15T15:54:52;101236.63;;;6.12;72.56
67987;BME280;54767;53.800;15.956;2023-02-15T15:57:35;101231.83;;;6.09;72.65
67987;BME280;54767;53.800;15.956;2023-02-15T16:02:53;101229.98;;;6.01;72.65
67987;BME280;54767;53.800;15.956;2023-02-15T16:05:23;101224.59;;;5.96;72.44
67987;BME280;54767;53.800;15.956;2023-02-15T16:07:52;101224.20;;;5.91;72.79
67987;BME280;54767;53.800;15.956;2023-02-15T16:10:23;101222.40;;;5.85;72.85
67987;BME280;54767;53.800;15.956;2023-02-15T16:12:52;101220.10;;;5.79;72.90
67987;BME280;54767;53.800;15.956;2023-02-15T16:15:33;101214.14;;;5.73;73.06
67987;BME280;54767;53.800;15.956;2023-02-15T16:18:03;101211.90;;;5.69;72.73
67987;BME280;54767;53.800;15.956;2023-02-15T16:20:36;101213.49;;;5.65;72.85
67987;BME280;54767;53.800;15.956;2023-02-15T16:28:54;101215.20;;;5.51;72.96
67987;BME280;54767;53.800;15.956;2023-02-15T16:31:22;101210.80;;;5.44;73.12
67987;BME280;54767;53.800;15.956;2023-02-15T16:33:53;101214.39;;;5.38;73.16
67987;BME280;54767;53.800;15.956;2023-02-15T16:36:27;101216.79;;;5.33;73.09
67987;BME280;54767;53.800;15.956;2023-02-15T16:41:26;101221.60;;;5.27;73.01
67987;BME280;54767;53.800;15.956;2023-02-15T16:43:58;101218.61;;;5.26;72.96
67987;BME280;54767;53.800;15.956;2023-02-15T16:46:30;101222.98;;;5.23;73.16